Time;durP1;ratioP1;P1;durP2;ratioP2;P2;SDS_P1;SDS_P2;PMS_P1;PMS_P2;Temp;Humidity;BMP_temperature;BMP_pressure;BME280_temperature;BME280_humidity;BME280_pressure;Samples;Min_cycle;Max_cycle;Signal;HPM_P1;HPM_P2
2022/05/10 00:01:41;;;;;;;1.95;1.73;;;19.20;39.50;;;;;;5021901;28;20181;-83
2022/05/10 00:04:09;;;;;;;3.20;1.70;;;19.20;39.60;;;;;;5022049;28;20181;-83
2022/05/10 00:06:38;;;;;;;2.03;1.70;;;19.20;39.60;;;;;;5056041;28;20249;-83
2022/05/10 00:09:04;;;;;;;2.65;1.77;;;19.20;39.50;;;;;;5038802;28;20256;-83
2022/05/10 00:11:30;;;;;;;1.67;1.58;;;19.20;39.60;;;;;;5039604;28;20168;-84
2022/05/10 00:13:56;;;;;;;1.50;1.40;;;19.20;39.60;;;;;;5055939;28;20150;-83
2022/05/10 00:16:22;;;;;;;3.53;1.70;;;19.10;39.60;;;;;;5039087;28;20171;-83
2022/05/10 00:18:48;;;;;;;2.28;1.80;;;19.20;39.60;;;;;;5039236;28;20240;-83
2022/05/10 00:21:16;;;;;;;2.47;1.65;;;19.20;39.80;;;;;;5055601;28;20165;-84
2022/05/10 00:23:42;;;;;;;1.90;1.70;;;19.20;39.90;;;;;;5023080;28;20261;-83
2022/05/10 00:26:07;;;;;;;2.92;2.15;;;19.10;39.80;;;;;;5055554;28;20594;-83
2022/05/10 00:28:33;;;;;;;3.10;1.83;;;19.20;39.80;;;;;;5039219;28;20170;-83
2022/05/10 00:30:58;;;;;;;3.88;1.75;;;19.20;39.80;;;;;;5022373;28;20244;-83
2022/05/10 00:33:26;;;;;;;1.95;1.70;;;19.20;40.50;;;;;;5055706;28;20158;-83
2022/05/10 00:35:52;;;;;;;2.65;1.90;;;19.10;39.90;;;;;;5038901;28;20244;-83
2022/05/10 00:38:18;;;;;;;2.65;2.17;;;19.20;39.90;;;;;;5022445;28;20252;-83
2022/05/10 00:40:44;;;;;;;2.67;1.90;;;19.10;39.80;;;;;;5039179;28;20153;-83
2022/05/10 00:43:30;;;;;;;3.03;1.92;;;19.20;40.00;;;;;;5073182;28;20291;-83
2022/05/10 00:46:15;;;;;;;2.05;1.85;;;19.20;40.00;;;;;;5058231;28;20153;-84
2022/05/10 00:48:51;;;;;;;2.65;1.90;;;19.20;40.00;;;;;;5073401;28;20158;-83
2022/05/10 00:51:27;;;;;;;1.88;1.45;;;19.10;39.90;;;;;;5073411;28;20153;-83
2022/05/10 00:53:58;;;;;;;2.17;1.63;;;19.10;40.10;;;;;;5073292;28;20157;-83
2022/05/10 00:56:45;;;;;;;2.22;1.60;;;19.10;40.00;;;;;;5073095;28;20617;-84
2022/05/10 00:59:26;;;;;;;3.15;1.80;;;19.10;40.00;;;;;;5073478;28;20156;-83
2022/05/10 01:01:54;;;;;;;1.80;1.70;;;19.10;40.10;;;;;;5073267;28;20191;-83
2022/05/10 01:04:25;;;;;;;2.13;1.70;;;19.10;40.00;;;;;;5022363;28;20162;-83
2022/05/10 01:07:06;;;;;;;3.50;1.85;;;19.10;40.00;;;;;;5022762;28;20193;-83
2022/05/10 01:09:56;;;;;;;2.67;1.85;;;19.10;40.00;;;;;;5040117;28;20326;-83
2022/05/10 01:12:33;;;;;;;2.42;1.77;;;19.10;40.10;;;;;;5055368;28;20173;-83
2022/05/10 01:15:04;;;;;;;2.47;1.77;;;19.10;40.10;;;;;;5072869;28;20149;-84
2022/05/10 01:17:30;;;;;;;2.55;1.90;;;19.10;40.10;;;;;;5038400;28;20670;-83
2022/05/10 01:19:55;;;;;;;3.20;1.67;;;19.10;40.10;;;;;;5073085;28;20154;-83
2022/05/10 01:22:45;;;;;;;2.70;1.70;;;19.20;40.20;;;;;;5021977;28;20169;-83
2022/05/10 01:25:52;;;;;;;1.98;1.77;;;19.10;40.30;;;;;;5041097;28;20285;-84
2022/05/10 01:28:30;;;;;;;2.47;1.90;;;19.00;40.20;;;;;;5058000;28;20153;-83
2022/05/10 01:30:58;;;;;;;2.33;1.70;;;19.10;40.30;;;;;;5054937;28;20172;-84
2022/05/10 01:33:35;;;;;;;2.83;1.92;;;19.00;40.20;;;;;;5058979;28;20154;-83
2022/05/10 01:36:08;;;;;;;2.10;1.90;;;19.10;40.30;;;;;;5043531;28;20146;-83
2022/05/10 01:38:41;;;;;;;2.28;1.70;;;19.10;40.30;;;;;;5042906;28;20161;-83
2022/05/10 01:41:25;;;;;;;2.08;1.70;;;19.10;40.30;;;;;;5042813;28;20153;-83
2022/05/10 01:44:01;;;;;;;2.17;1.70;;;19.10;40.30;;;;;;5058864;28;20645;-83
2022/05/10 01:46:29;;;;;;;2.10;1.90;;;19.10;40.40;;;;;;5041918;28;20169;-83
2022/05/10 01:49:00;;;;;;;2.40;1.80;;;19.10;40.40;;;;;;5076631;28;20193;-83
2022/05/10 01:51:31;;;;;;;3.15;1.60;;;19.10;40.40;;;;;;5041851;28;20577;-83
2022/05/10 01:53:57;;;;;;;3.42;1.98;;;19.10;40.50;;;;;;5025698;28;20176;-83
2022/05/10 01:56:24;;;;;;;2.35;1.73;;;19.10;40.50;;;;;;5041725;28;20153;-84
2022/05/10 01:58:50;;;;;;;2.17;1.67;;;19.10;40.50;;;;;;5025521;28;20640;-83
2022/05/10 02:01:24;;;;;;;2.38;1.80;;;19.00;40.50;;;;;;5025267;28;20268;-83
2022/05/10 02:04:06;;;;;;;1.95;1.75;;;19.00;40.50;;;;;;5042117;28;20154;-83
2022/05/10 02:06:43;;;;;;;2.20;1.70;;;19.00;40.40;;;;;;5042209;28;20295;-83
2022/05/10 02:09:39;;;;;;;3.10;1.80;;;19.00;40.50;;;;;;5041636;28;20234;-83
2022/05/10 02:12:11;;;;;;;2.70;1.83;;;19.00;40.50;;;;;;5058487;28;20619;-83
2022/05/10 02:14:52;;;;;;;2.33;1.65;;;19.00;40.50;;;;;;5042059;28;20279;-83
2022/05/10 02:17:23;;;;;;;2.65;2.20;;;19.10;40.70;;;;;;5058133;28;20146;-83
2022/05/10 02:19:51;;;;;;;2.67;1.90;;;19.10;40.60;;;;;;5025297;28;20201;-83
2022/05/10 02:22:21;;;;;;;2.92;1.98;;;19.00;40.60;;;;;;5041578;28;20153;-83
2022/05/10 02:24:57;;;;;;;2.08;1.63;;;19.00;40.60;;;;;;5058019;28;20158;-83
2022/05/10 02:27:28;;;;;;;2.33;1.92;;;19.00;40.70;;;;;;5027304;28;20192;-83
2022/05/10 02:29:59;;;;;;;3.25;1.80;;;19.00;40.70;;;;;;4991914;28;20574;-83
2022/05/10 02:35:08;;;;;;;2.53;1.60;;;19.00;40.80;;;;;;5044623;28;20153;-84
2022/05/10 02:37:33;;;;;;;1.95;1.60;;;19.00;40.80;;;;;;5025402;28;20170;-83
2022/05/10 02:40:00;;;;;;;2.45;1.77;;;18.90;40.90;;;;;;5024572;28;20180;-83
2022/05/10 02:42:26;;;;;;;2.00;1.80;;;19.00;40.90;;;;;;5057584;28;20249;-83
2022/05/10 02:44:54;;;;;;;1.83;1.67;;;19.00;41.00;;;;;;5024218;28;20231;-83
2022/05/10 02:47:32;;;;;;;2.53;1.88;;;19.00;41.00;;;;;;5025159;28;20207;-83
2022/05/10 02:49:58;;;;;;;2.63;1.95;;;19.00;40.90;;;;;;5057296;28;20281;-83
2022/05/10 02:52:25;;;;;;;1.70;1.60;;;19.00;41.00;;;;;;5040805;28;20236;-83
2022/05/10 02:54:56;;;;;;;2.15;1.95;;;19.00;40.90;;;;;;4991103;28;20173;-84
2022/05/10 02:57:23;;;;;;;2.15;1.42;;;18.90;40.90;;;;;;5007564;28;20177;-83
2022/05/10 02:59:50;;;;;;;1.90;1.70;;;19.00;41.00;;;;;;5040959;28;20168;-83
2022/05/10 03:02:22;;;;;;;1.83;1.52;;;18.90;41.00;;;;;;5023590;28;20186;-83
2022/05/10 03:04:56;;;;;;;2.25;1.80;;;18.90;41.00;;;;;;4991284;28;20177;-83
2022/05/10 03:07:23;;;;;;;1.88;1.70;;;18.90;41.10;;;;;;5023859;28;20178;-83
2022/05/10 03:09:49;;;;;;;2.13;1.90;;;18.90;41.10;;;;;;5057437;28;20671;-83
2022/05/10 03:12:15;;;;;;;2.03;1.80;;;18.90;41.10;;;;;;5056872;28;20158;-83
2022/05/10 03:14:40;;;;;;;1.90;1.70;;;18.90;41.00;;;;;;5040307;28;20208;-83
2022/05/10 03:17:08;;;;;;;2.17;1.75;;;18.90;41.10;;;;;;5040371;28;20265;-83
2022/05/10 03:19:34;;;;;;;1.85;1.75;;;18.90;41.20;;;;;;5040823;28;20173;-83
2022/05/10 03:22:00;;;;;;;2.30;1.73;;;18.90;41.10;;;;;;5040255;28;20176;-84
2022/05/10 03:24:25;;;;;;;3.33;1.60;;;18.90;41.10;;;;;;5040287;28;20250;-83
2022/05/10 03:26:51;;;;;;;2.40;1.60;;;18.90;41.10;;;;;;5040058;28;20173;-83
2022/05/10 03:29:17;;;;;;;2.25;1.77;;;18.90;41.10;;;;;;5040036;28;20189;-83
2022/05/10 03:31:43;;;;;;;3.05;1.70;;;18.90;41.10;;;;;;5040061;28;20722;-83
2022/05/10 03:36:48;;;;;;;2.00;1.58;;;18.90;41.20;;;;;;5058576;28;20232;-83
2022/05/10 03:39:14;;;;;;;2.00;1.80;;;19.00;41.20;;;;;;5056424;28;20210;-83
2022/05/10 03:41:39;;;;;;;3.15;1.77;;;18.90;41.10;;;;;;5056415;28;20157;-83
2022/05/10 03:44:06;;;;;;;2.00;1.65;;;18.90;41.10;;;;;;5056640;28;20176;-83
2022/05/10 03:46:32;;;;;;;1.95;1.70;;;18.90;41.20;;;;;;5040182;28;20248;-83
2022/05/10 03:48:58;;;;;;;2.42;1.70;;;18.90;41.20;;;;;;5056404;28;20296;-84
2022/05/10 03:51:24;;;;;;;3.03;1.88;;;18.90;41.20;;;;;;5074014;28;20245;-83
2022/05/10 03:53:49;;;;;;;2.10;1.65;;;18.90;41.30;;;;;;5056280;28;20161;-83
2022/05/10 03:56:15;;;;;;;2.13;1.70;;;18.90;41.30;;;;;;5055185;28;20176;-83
2022/05/10 03:58:40;;;;;;;1.90;1.60;;;18.90;41.30;;;;;;5056178;28;20154;-83
2022/05/10 04:01:07;;;;;;;2.15;1.88;;;18.90;41.40;;;;;;5039425;28;20158;-83
2022/05/10 04:03:33;;;;;;;3.28;2.25;;;18.80;41.20;;;;;;5055916;28;20211;-83
2022/05/10 04:05:59;;;;;;;2.05;1.50;;;18.90;41.40;;;;;;5039470;28;20590;-83
2022/05/10 04:08:24;;;;;;;2.55;1.80;;;18.90;41.30;;;;;;5055997;28;20255;-83
2022/05/10 04:10:50;;;;;;;1.60;1.50;;;18.90;41.30;;;;;;5039324;28;20189;-83
2022/05/10 04:13:16;;;;;;;2.50;1.50;;;18.90;41.30;;;;;;5073709;28;20189;-83
2022/05/10 04:15:42;;;;;;;1.73;1.50;;;18.90;41.30;;;;;;5039386;28;20252;-83
2022/05/10 04:18:08;;;;;;;1.95;1.67;;;18.90;41.40;;;;;;5073540;28;20206;-83
2022/05/10 04:20:34;;;;;;;2.38;1.80;;;18.90;41.30;;;;;;5055668;28;20166;-83
2022/05/10 04:23:00;;;;;;;1.92;1.60;;;18.90;41.30;;;;;;5055757;28;20256;-83
2022/05/10 04:25:26;;;;;;;1.85;1.55;;;18.90;41.40;;;;;;5055609;28;20165;-83
2022/05/10 04:27:52;;;;;;;1.65;1.55;;;18.90;41.30;;;;;;5055586;28;20179;-85
2022/05/10 04:30:18;;;;;;;1.70;1.60;;;18.90;41.30;;;;;;5038805;28;20703;-83
2022/05/10 04:32:44;;;;;;;1.52;1.42;;;18.90;41.30;;;;;;5055814;28;20192;-83
2022/05/10 04:35:10;;;;;;;1.73;1.63;;;19.00;41.00;;;;;;5038703;28;20177;-83
2022/05/10 04:37:36;;;;;;;2.15;1.95;;;18.90;41.00;;;;;;5055319;28;20164;-83
2022/05/10 04:42:44;;;;;;;1.80;1.70;;;19.00;40.90;;;;;;5057271;28;20157;-83
2022/05/10 04:45:10;;;;;;;2.03;1.60;;;19.00;41.00;;;;;;5073217;28;20540;-83
2022/05/10 04:47:36;;;;;;;2.30;1.80;;;19.10;41.00;;;;;;5039128;28;20157;-83
2022/05/10 04:50:02;;;;;;;1.75;1.50;;;19.10;40.80;;;;;;5039099;28;20262;-83
2022/05/10 04:52:27;;;;;;;2.28;1.60;;;19.10;40.80;;;;;;5055339;28;20162;-83
2022/05/10 04:54:53;;;;;;;1.80;1.60;;;19.00;40.90;;;;;;5038789;28;20198;-84
2022/05/10 04:57:18;;;;;;;2.28;1.60;;;19.00;41.10;;;;;;5073045;28;20154;-83
2022/05/10 04:59:44;;;;;;;1.98;1.67;;;19.00;40.80;;;;;;5055182;28;20165;-83
2022/05/10 05:02:10;;;;;;;2.10;1.40;;;19.00;40.90;;;;;;5073658;28;20208;-83
2022/05/10 05:04:35;;;;;;;1.70;1.40;;;19.00;40.90;;;;;;5038421;28;20169;-83
2022/05/10 05:07:02;;;;;;;1.50;1.40;;;19.00;40.80;;;;;;5056370;28;20161;-83
2022/05/10 05:09:27;;;;;;;2.08;1.67;;;19.00;40.90;;;;;;5042478;28;20221;-83
2022/05/10 05:11:53;;;;;;;2.88;1.58;;;19.00;41.00;;;;;;5042756;28;20165;-83
2022/05/10 05:14:18;;;;;;;1.48;1.38;;;19.00;41.00;;;;;;5077331;28;20180;-84
2022/05/10 05:16:45;;;;;;;2.13;1.65;;;19.00;41.20;;;;;;5059124;28;20166;-83
2022/05/10 05:19:11;;;;;;;1.40;1.30;;;19.00;41.00;;;;;;5077223;28;20185;-83
2022/05/10 05:21:36;;;;;;;2.08;1.50;;;19.00;41.10;;;;;;5042484;28;20651;-83
2022/05/10 05:24:02;;;;;;;1.90;1.60;;;18.90;40.90;;;;;;5059169;28;20169;-83
2022/05/10 05:26:28;;;;;;;1.60;1.50;;;19.00;40.80;;;;;;5058946;28;20166;-84
2022/05/10 05:28:54;;;;;;;1.80;1.45;;;19.00;41.00;;;;;;5058605;28;20264;-83
2022/05/10 05:31:20;;;;;;;1.42;1.33;;;19.00;41.10;;;;;;5058940;28;20154;-83
2022/05/10 05:33:46;;;;;;;1.70;1.50;;;19.10;40.80;;;;;;5059072;28;20162;-83
2022/05/10 05:36:12;;;;;;;1.58;1.40;;;19.00;40.70;;;;;;5058943;28;20219;-84
2022/05/10 05:38:38;;;;;;;3.20;1.48;;;19.00;40.60;;;;;;5058938;28;20149;-83
2022/05/10 05:41:04;;;;;;;1.73;1.35;;;18.90;40.90;;;;;;5058727;28;20229;-83
2022/05/10 05:43:30;;;;;;;2.40;1.70;;;19.00;40.80;;;;;;5058682;28;20586;-83
2022/05/10 05:45:55;;;;;;;2.03;1.50;;;19.00;41.20;;;;;;5041988;28;20169;-84
2022/05/10 05:48:21;;;;;;;1.50;1.40;;;19.00;40.90;;;;;;5058707;28;20225;-84
2022/05/10 05:50:47;;;;;;;1.90;1.30;;;18.90;40.90;;;;;;5058429;28;20189;-83
2022/05/10 05:53:12;;;;;;;2.05;1.50;;;19.00;40.80;;;;;;5042039;28;20184;-84
2022/05/10 05:55:40;;;;;;;1.40;1.30;;;18.90;40.70;;;;;;5041848;28;20623;-83
2022/05/10 05:58:05;;;;;;;1.80;1.50;;;19.00;40.70;;;;;;5042113;28;20153;-84
2022/05/10 06:00:31;;;;;;;1.60;1.50;;;19.00;40.80;;;;;;5076440;28;20161;-84
2022/05/10 06:02:57;;;;;;;1.77;1.50;;;18.90;40.90;;;;;;5076487;28;20158;-83
2022/05/10 06:05:27;;;;;;;2.53;1.30;;;19.00;41.00;;;;;;5041358;28;20161;-84
2022/05/10 06:07:52;;;;;;;1.90;1.55;;;19.00;40.10;;;;;;5025488;28;20553;-83
2022/05/10 06:10:18;;;;;;;1.88;1.55;;;19.00;40.50;;;;;;5058122;28;20188;-84
2022/05/10 06:12:44;;;;;;;1.40;1.30;;;19.00;40.70;;;;;;5058180;28;20157;-84
2022/05/10 06:15:12;;;;;;;1.35;1.25;;;19.00;40.40;;;;;;5058183;28;20300;-84
2022/05/10 06:17:39;;;;;;;1.90;1.55;;;19.00;40.60;;;;;;5057557;28;20156;-84
2022/05/10 06:20:06;;;;;;;1.55;1.45;;;19.00;40.90;;;;;;5075028;28;20160;-83
2022/05/10 06:22:33;;;;;;;1.48;1.38;;;19.00;40.70;;;;;;5042549;28;20230;-83
2022/05/10 06:24:59;;;;;;;1.50;1.40;;;19.00;40.50;;;;;;5025971;28;20232;-83
2022/05/10 06:27:24;;;;;;;1.42;1.33;;;19.00;40.70;;;;;;5058724;28;20635;-84
2022/05/10 06:29:50;;;;;;;1.75;1.50;;;19.00;40.40;;;;;;5041522;28;20189;-83
2022/05/10 06:32:24;;;;;;;2.05;1.40;;;19.10;40.30;;;;;;5075838;28;20153;-83
2022/05/10 06:34:50;;;;;;;1.95;1.60;;;19.10;40.10;;;;;;5024648;28;20162;-84
2022/05/10 06:38:24;;;;;;;1.58;1.33;;;19.10;40.30;;;;;;5058183;28;20156;-84
2022/05/10 06:40:05;;;;;;;1.52;1.40;;;19.10;40.40;;;;;;5046872;28;20205;-84
2022/05/10 06:42:31;;;;;;;4.50;1.30;;;19.10;40.20;;;;;;5025377;28;20273;-84
2022/05/10 06:44:57;;;;;;;1.55;1.45;;;19.00;40.20;;;;;;5041243;28;20248;-84
2022/05/10 06:47:22;;;;;;;2.28;1.27;;;19.10;40.30;;;;;;5057690;28;20573;-85
2022/05/10 06:49:48;;;;;;;1.30;1.20;;;19.10;40.10;;;;;;5057344;28;20575;-84
2022/05/10 06:52:17;;;;;;;1.20;1.10;;;19.10;40.30;;;;;;5057447;28;20227;-84
2022/05/10 06:54:43;;;;;;;2.10;1.30;;;19.10;40.00;;;;;;5058016;28;20157;-84
2022/05/10 06:57:09;;;;;;;2.35;1.50;;;19.10;40.20;;;;;;5025921;28;20165;-85
2022/05/10 06:59:36;;;;;;;1.75;1.42;;;19.10;40.20;;;;;;5042631;28;20659;-83
2022/05/10 07:02:03;;;;;;;1.85;1.30;;;19.10;40.20;;;;;;5008441;28;20181;-84
2022/05/10 07:04:30;;;;;;;1.33;1.23;;;19.10;40.00;;;;;;5008000;28;20203;-84
2022/05/10 07:06:56;;;;;;;1.38;1.27;;;19.10;40.10;;;;;;5007514;28;20281;-85
2022/05/10 07:09:21;;;;;;;1.73;1.20;;;19.10;39.80;;;;;;5057645;28;20221;-84
2022/05/10 07:11:47;;;;;;;2.15;1.30;;;19.00;39.60;;;;;;5058103;28;20188;-84
2022/05/10 07:14:13;;;;;;;1.90;1.20;;;19.10;39.80;;;;;;5042685;28;20165;-84
2022/05/10 07:16:39;;;;;;;1.40;1.30;;;19.10;39.60;;;;;;5059183;28;20164;-84
2022/05/10 07:19:04;;;;;;;3.83;1.30;;;19.10;39.60;;;;;;5058589;28;20184;-84
2022/05/10 07:21:30;;;;;;;2.17;1.30;;;19.10;39.90;;;;;;5040328;28;20177;-84
2022/05/10 07:23:55;;;;;;;1.48;1.38;;;19.20;39.70;;;;;;5023685;28;20169;-84
2022/05/10 07:26:21;;;;;;;1.63;1.45;;;19.20;39.30;;;;;;5039982;28;20169;-83
2022/05/10 07:28:47;;;;;;;1.45;1.30;;;19.20;39.60;;;;;;5040184;28;20166;-84
2022/05/10 07:31:13;;;;;;;1.42;1.23;;;19.20;39.40;;;;;;5039655;28;20216;-84
2022/05/10 07:33:38;;;;;;;1.48;1.38;;;19.20;39.00;;;;;;5040456;28;20632;-83
2022/05/10 07:38:44;;;;;;;1.60;1.30;;;19.30;39.20;;;;;;5058964;28;20202;-84
2022/05/10 07:41:11;;;;;;;1.92;1.33;;;19.20;39.20;;;;;;5040332;28;20169;-83
2022/05/10 07:43:37;;;;;;;2.97;1.40;;;19.20;39.20;;;;;;5056621;28;20142;-83
2022/05/10 07:46:05;;;;;;;1.48;1.30;;;19.10;39.20;;;;;;5039895;28;20218;-84
2022/05/10 07:48:32;;;;;;;1.60;1.40;;;19.20;39.10;;;;;;5006789;28;20212;-83
2022/05/10 07:51:00;;;;;;;1.35;1.25;;;19.20;38.90;;;;;;5006248;28;20217;-84
2022/05/10 07:53:28;;;;;;;2.28;1.55;;;19.30;39.00;;;;;;5007256;28;20212;-83
2022/05/10 07:55:54;;;;;;;1.73;1.42;;;19.20;39.00;;;;;;5007074;28;20200;-84
2022/05/10 07:58:21;;;;;;;1.48;1.38;;;19.30;38.90;;;;;;5006680;28;20672;-84
2022/05/10 08:00:47;;;;;;;3.40;1.35;;;19.20;38.60;;;;;;5022638;28;20196;-84
2022/05/10 08:03:16;;;;;;;1.20;1.08;;;19.30;38.60;;;;;;5056398;28;20169;-84
2022/05/10 08:05:42;;;;;;;2.38;1.30;;;19.30;38.50;;;;;;5039553;28;20640;-84
2022/05/10 08:08:08;;;;;;;2.55;1.35;;;19.30;38.50;;;;;;5022826;28;20248;-84
2022/05/10 08:10:34;;;;;;;4.32;1.50;;;19.30;38.50;;;;;;5039478;28;20193;-84
2022/05/10 08:12:59;;;;;;;1.73;1.27;;;19.30;38.50;;;;;;5039685;28;20535;-84
2022/05/10 08:15:25;;;;;;;1.67;1.50;;;19.30;38.40;;;;;;5073848;28;20154;-84
2022/05/10 08:17:52;;;;;;;2.15;1.30;;;19.30;38.40;;;;;;5039506;28;20158;-84
2022/05/10 08:20:18;;;;;;;3.00;1.30;;;19.30;38.50;;;;;;5039499;28;20636;-83
2022/05/10 08:22:45;;;;;;;2.28;1.38;;;19.30;38.70;;;;;;5022881;28;20547;-84
2022/05/10 08:25:11;;;;;;;3.67;1.40;;;19.30;38.60;;;;;;5056076;28;20679;-83
2022/05/10 08:27:37;;;;;;;4.07;1.40;;;19.30;38.50;;;;;;5039857;28;20543;-83
2022/05/10 08:30:04;;;;;;;2.28;1.50;;;19.30;38.60;;;;;;5039113;28;20246;-83
2022/05/10 08:32:29;;;;;;;2.88;1.38;;;19.30;38.30;;;;;;5055899;28;20157;-83
2022/05/10 08:34:55;;;;;;;1.63;1.40;;;19.40;38.30;;;;;;5074006;28;20160;-84
2022/05/10 08:37:20;;;;;;;6.18;1.58;;;19.40;38.20;;;;;;5055836;28;20164;-83
2022/05/10 08:39:46;;;;;;;3.20;1.52;;;19.40;38.30;;;;;;5055747;28;20208;-83
2022/05/10 08:42:26;;;;;;;1.40;1.20;;;19.40;38.50;;;;;;5038506;28;20169;-84
2022/05/10 08:44:56;;;;;;;1.48;1.30;;;19.30;38.50;;;;;;5040081;28;20161;-84
2022/05/10 08:47:22;;;;;;;1.90;1.60;;;19.30;38.50;;;;;;5039131;28;20188;-84
2022/05/10 08:49:51;;;;;;;2.08;1.50;;;19.30;38.50;;;;;;5022193;28;20200;-83
2022/05/10 08:52:17;;;;;;;1.95;1.40;;;19.30;38.70;;;;;;5039205;28;20149;-83
2022/05/10 08:54:43;;;;;;;2.47;1.33;;;19.40;38.70;;;;;;5022195;28;20177;-84
2022/05/10 08:57:31;;;;;;;2.13;1.38;;;19.30;38.70;;;;;;5038847;28;20157;-83
2022/05/10 09:00:10;;;;;;;1.55;1.42;;;19.40;38.80;;;;;;5058168;28;20177;-83
2022/05/10 09:02:44;;;;;;;2.78;1.60;;;19.30;38.90;;;;;;5038961;28;20169;-83
2022/05/10 09:05:30;;;;;;;1.60;1.30;;;19.20;38.80;;;;;;5055245;28;20157;-83
2022/05/10 09:08:29;;;;;;;2.22;1.52;;;19.20;38.90;;;;;;5039148;28;20643;-83
2022/05/10 09:11:01;;;;;;;1.58;1.48;;;19.30;39.00;;;;;;5041034;28;20203;-83
2022/05/10 09:13:26;;;;;;;2.08;1.80;;;19.30;39.00;;;;;;5054845;28;20153;-83
2022/05/10 09:15:59;;;;;;;2.78;1.55;;;19.10;38.80;;;;;;5055079;28;20164;-85
2022/05/10 09:18:28;;;;;;;1.27;1.17;;;19.20;38.90;;;;;;5039353;28;20602;-84
2022/05/10 09:21:19;;;;;;;1.75;1.30;;;19.20;38.80;;;;;;5022293;28;20700;-83
2022/05/10 09:24:12;;;;;;;1.50;1.40;;;19.20;38.90;;;;;;5025832;28;20194;-83
2022/05/10 09:26:43;;;;;;;1.80;1.50;;;19.20;38.70;;;;;;5054797;28;20185;-84
2022/05/10 09:29:17;;;;;;;1.52;1.42;;;19.30;38.80;;;;;;5006308;28;20204;-84
2022/05/10 09:37:21;;;;;;;2.72;1.70;;;19.20;38.60;;;;;;5057060;28;20173;-84
2022/05/10 09:39:51;;;;;;;1.77;1.60;;;19.30;38.70;;;;;;5038079;28;20169;-83
2022/05/10 09:42:33;;;;;;;1.58;1.40;;;19.20;38.70;;;;;;5021955;28;20173;-83
2022/05/10 09:45:04;;;;;;;2.20;1.52;;;19.30;38.70;;;;;;5023237;28;20257;-83
2022/05/10 09:47:30;;;;;;;2.53;1.40;;;19.30;38.80;;;;;;5021987;28;20169;-83
2022/05/10 09:50:18;;;;;;;1.58;1.45;;;19.30;38.70;;;;;;5038246;28;20223;-83
2022/05/10 09:52:44;;;;;;;2.13;1.63;;;19.30;38.70;;;;;;5023496;28;20169;-83
2022/05/10 09:55:15;;;;;;;2.22;1.63;;;19.30;38.70;;;;;;5041807;28;20157;-84
2022/05/10 09:57:42;;;;;;;2.22;1.50;;;19.30;38.80;;;;;;5025937;28;20634;-83
2022/05/10 10:00:12;;;;;;;2.17;1.30;;;19.30;38.80;;;;;;5025801;28;20169;-84
2022/05/10 10:02:38;;;;;;;2.20;1.70;;;19.30;38.90;;;;;;5043139;28;20551;-84
2022/05/10 10:05:25;;;;;;;2.13;1.52;;;19.30;39.00;;;;;;5042451;28;20150;-83
2022/05/10 10:07:54;;;;;;;1.83;1.67;;;19.30;39.20;;;;;;5058343;28;20190;-84
2022/05/10 10:10:38;;;;;;;1.80;1.50;;;19.20;39.00;;;;;;5041774;28;20212;-84
2022/05/10 10:13:27;;;;;;;1.70;1.50;;;19.20;39.20;;;;;;5058727;28;20562;-84
2022/05/10 10:16:00;;;;;;;2.00;1.80;;;19.20;39.10;;;;;;5058073;28;20237;-84
2022/05/10 10:18:44;;;;;;;2.15;1.83;;;19.10;39.20;;;;;;5059063;28;20154;-84
2022/05/10 10:21:11;;;;;;;1.60;1.50;;;19.20;39.30;;;;;;5058006;28;20199;-84
2022/05/10 10:23:38;;;;;;;1.60;1.50;;;19.20;39.30;;;;;;5041775;28;20628;-84
2022/05/10 10:26:19;;;;;;;1.92;1.70;;;19.20;39.40;;;;;;5041358;28;20253;-84
2022/05/10 10:28:50;;;;;;;2.05;1.67;;;19.10;39.40;;;;;;5042690;28;20184;-83
2022/05/10 10:31:22;;;;;;;1.60;1.50;;;19.10;39.60;;;;;;5024823;28;20264;-84
2022/05/10 10:33:52;;;;;;;2.60;1.85;;;19.20;39.50;;;;;;5057683;28;20185;-84
2022/05/10 10:36:28;;;;;;;2.05;1.80;;;19.10;39.50;;;;;;5041238;28;20153;-84
2022/05/10 10:39:29;;;;;;;2.40;1.80;;;19.20;39.50;;;;;;5075517;28;20236;-83
2022/05/10 10:42:01;;;;;;;1.88;1.70;;;19.10;39.60;;;;;;5075644;28;20162;-83
2022/05/10 10:44:28;;;;;;;1.80;1.70;;;19.20;39.70;;;;;;5057912;28;20173;-83
2022/05/10 10:47:06;;;;;;;1.80;1.70;;;19.10;39.60;;;;;;5057581;28;20244;-84
2022/05/10 10:49:49;;;;;;;2.20;2.00;;;19.10;39.60;;;;;;5040430;28;20196;-83
2022/05/10 10:52:17;;;;;;;1.98;1.70;;;19.10;39.60;;;;;;5042800;28;20161;-82
2022/05/10 10:54:44;;;;;;;1.80;1.70;;;19.10;39.80;;;;;;5007673;28;20678;-82
2022/05/10 10:57:25;;;;;;;2.00;1.80;;;19.20;39.80;;;;;;5007286;28;20662;-83
2022/05/10 11:00:01;;;;;;;1.65;1.55;;;19.10;39.70;;;;;;4992224;28;20207;-82
2022/05/10 11:02:49;;;;;;;2.05;1.80;;;19.20;40.50;;;;;;5057341;28;20150;-84
2022/05/10 11:05:31;;;;;;;1.83;1.70;;;19.30;39.80;;;;;;4995852;28;20193;-84
2022/05/10 11:08:19;;;;;;;2.22;2.00;;;19.10;39.80;;;;;;5009136;28;20177;-83
2022/05/10 11:11:14;;;;;;;2.25;1.70;;;19.10;40.30;;;;;;5074963;28;20196;-82
2022/05/10 11:14:20;;;;;;;2.00;1.80;;;19.20;40.00;;;;;;4996200;28;20204;-83
2022/05/10 11:17:09;;;;;;;3.22;1.90;;;19.20;40.10;;;;;;5056691;28;20231;-84
2022/05/10 11:20:00;;;;;;;2.50;2.30;;;19.20;40.00;;;;;;5059671;28;20173;-83
2022/05/10 11:22:31;;;;;;;2.30;1.83;;;19.10;40.00;;;;;;5045787;28;20172;-83
2022/05/10 11:25:09;;;;;;;2.85;1.90;;;19.10;40.10;;;;;;5040463;28;20236;-83
2022/05/10 11:27:45;;;;;;;2.97;2.05;;;19.10;40.20;;;;;;5025476;28;20238;-83
2022/05/10 11:30:24;;;;;;;2.78;1.80;;;19.20;40.30;;;;;;5041315;28;20211;-84
2022/05/10 11:33:09;;;;;;;2.20;2.00;;;19.20;40.40;;;;;;5040676;28;20496;-84
2022/05/10 11:36:04;;;;;;;3.30;2.00;;;19.20;40.40;;;;;;5055671;28;20211;-84
2022/05/10 11:38:45;;;;;;;2.28;2.08;;;19.30;40.30;;;;;;5019311;28;20620;-84
2022/05/10 11:41:35;;;;;;;3.03;2.00;;;19.30;40.40;;;;;;5027290;28;20187;-83
2022/05/10 11:44:20;;;;;;;2.28;2.08;;;19.30;40.50;;;;;;5040195;28;20206;-84
2022/05/10 11:47:20;;;;;;;3.72;2.20;;;19.30;40.30;;;;;;5008269;28;20256;-84
2022/05/10 11:50:26;;;;;;;2.10;1.77;;;19.30;40.50;;;;;;4982094;28;20266;-84
2022/05/10 11:53:19;;;;;;;2.97;2.30;;;19.30;40.70;;;;;;5056279;28;20520;-84
2022/05/10 11:55:54;;;;;;;2.03;1.83;;;19.30;40.60;;;;;;4982955;28;20181;-85
2022/05/10 11:58:20;;;;;;;2.40;2.20;;;19.30;40.60;;;;;;5007050;28;20181;-84
2022/05/10 12:00:51;;;;;;;2.28;2.08;;;19.30;40.50;;;;;;5055913;28;20185;-84
2022/05/10 12:03:47;;;;;;;3.42;2.20;;;19.30;40.60;;;;;;5040325;28;20145;-84
2022/05/10 12:06:35;;;;;;;2.40;2.20;;;19.20;40.80;;;;;;5056604;28;20558;-84
2022/05/10 12:09:04;;;;;;;2.78;2.25;;;19.20;40.80;;;;;;5041885;28;20745;-85
2022/05/10 12:11:37;;;;;;;2.65;2.15;;;19.30;40.90;;;;;;5039859;28;20174;-85
2022/05/10 12:22:51;;;;;;;2.55;2.22;;;19.40;41.00;;;;;;5058536;28;20165;-85
2022/05/10 12:25:49;;;;;;;2.22;2.03;;;19.30;41.00;;;;;;5022387;28;20169;-84
2022/05/10 12:28:46;;;;;;;2.72;2.08;;;19.30;41.20;;;;;;5073157;28;20185;-84
2022/05/10 12:31:49;;;;;;;2.50;2.20;;;19.30;41.10;;;;;;5055566;28;20230;-84
2022/05/10 12:34:38;;;;;;;2.40;2.20;;;19.20;41.20;;;;;;5042440;28;20291;-84
2022/05/10 12:37:32;;;;;;;3.10;2.20;;;19.20;41.30;;;;;;5024020;28;20173;-83
2022/05/10 12:40:17;;;;;;;2.60;2.40;;;19.20;41.40;;;;;;5028941;28;20281;-85
2022/05/10 12:43:19;;;;;;;2.22;2.03;;;19.10;41.50;;;;;;5039365;28;20161;-84
2022/05/10 12:46:05;;;;;;;4.68;2.47;;;19.20;41.50;;;;;;5056057;28;20187;-85
2022/05/10 12:48:58;;;;;;;2.50;2.10;;;19.20;41.70;;;;;;5039886;28;20539;-85
2022/05/10 12:51:44;;;;;;;2.33;2.13;;;19.20;41.70;;;;;;5058646;28;20654;-85
2022/05/10 12:54:33;;;;;;;2.65;2.30;;;19.10;41.80;;;;;;5073221;28;20185;-85
2022/05/10 12:57:14;;;;;;;2.55;2.30;;;19.10;41.90;;;;;;5058997;28;20208;-84
2022/05/10 13:00:00;;;;;;;2.95;2.22;;;19.10;42.00;;;;;;5072966;28;20149;-85
2022/05/10 13:02:27;;;;;;;2.50;2.30;;;19.10;42.10;;;;;;5057630;28;20145;-85
2022/05/10 13:04:55;;;;;;;3.10;2.50;;;19.10;42.20;;;;;;5073846;28;20145;-85
2022/05/10 13:07:37;;;;;;;2.75;2.45;;;19.10;42.30;;;;;;5038821;28;20225;-84
2022/05/10 13:10:09;;;;;;;2.30;2.10;;;19.10;42.20;;;;;;5023199;28;20256;-84
2022/05/10 13:12:37;;;;;;;2.85;2.28;;;19.20;42.20;;;;;;5022538;28;20169;-84
2022/05/10 13:15:11;;;;;;;2.80;2.30;;;19.20;42.40;;;;;;5039022;28;20196;-84
2022/05/10 13:17:37;;;;;;;2.67;2.42;;;19.10;42.30;;;;;;5039373;28;20177;-84
2022/05/10 13:20:08;;;;;;;3.08;2.58;;;19.20;42.40;;;;;;5035019;28;20162;-84
2022/05/10 13:22:34;;;;;;;3.22;2.30;;;19.20;42.50;;;;;;5035325;28;20162;-84
2022/05/10 13:25:04;;;;;;;3.03;2.60;;;19.20;42.20;;;;;;5035452;28;20235;-84
2022/05/10 13:27:32;;;;;;;3.85;2.40;;;19.30;42.30;;;;;;5035860;28;20162;-84
2022/05/10 13:30:04;;;;;;;3.75;2.60;;;19.20;42.20;;;;;;5022692;28;20287;-84
2022/05/10 13:32:34;;;;;;;3.00;2.60;;;19.20;42.20;;;;;;5051564;28;20540;-83
2022/05/10 13:35:10;;;;;;;2.80;2.50;;;19.20;42.20;;;;;;5059525;28;20150;-84
2022/05/10 13:37:38;;;;;;;2.95;2.60;;;19.20;42.20;;;;;;5043954;28;20214;-84